Time;durP1;ratioP1;P1;durP2;ratioP2;P2;SDS_P1;SDS_P2;PMS_P1;PMS_P2;Temp;Humidity;BMP_temperature;BMP_pressure;BME280_temperature;BME280_humidity;BME280_pressure;Samples;Min_cycle;Max_cycle;Signal;HPM_P1;HPM_P2
2023/06/13 03:16:06;;;;;;;3.22;1.23;;;15.70;65.50;;;;;;6163256;22;89025;31
2023/06/13 03:18:34;;;;;;;3.45;1.30;;;15.60;65.40;;;;;;6185517;22;88590;-69
2023/06/13 03:21:00;;;;;;;4.53;2.00;;;15.60;65.80;;;;;;6187078;22;89016;-69
2023/06/13 03:23:25;;;;;;;4.25;1.50;;;15.60;66.10;;;;;;6186228;22;87406;-68
2023/06/13 03:25:51;;;;;;;3.58;1.35;;;15.60;66.00;;;;;;6187453;22;87440;-67
2023/06/13 03:28:17;;;;;;;3.63;0.98;;;15.60;66.50;;;;;;6187991;22;87569;-68
2023/06/13 03:30:44;;;;;;;3.35;1.58;;;15.60;66.20;;;;;;6188338;22;87415;-68
2023/06/13 03:33:09;;;;;;;3.58;1.13;;;15.60;66.90;;;;;;6186927;22;88652;-68
2023/06/13 03:35:35;;;;;;;6.15;1.38;;;15.60;66.50;;;;;;6186936;22;88965;-68
2023/06/13 03:38:01;;;;;;;3.95;1.48;;;15.60;65.80;;;;;;6187624;22;86983;-68
2023/06/13 03:40:26;;;;;;;2.50;1.33;;;15.70;66.10;;;;;;6188363;22;87419;-67
2023/06/13 03:42:52;;;;;;;4.43;1.50;;;15.70;66.50;;;;;;6186862;22;88297;-67
2023/06/13 03:45:19;;;;;;;4.70;1.90;;;15.70;66.60;;;;;;6187134;22;88548;-67
2023/06/13 03:47:45;;;;;;;4.57;1.08;;;15.80;66.70;;;;;;6187449;22;87106;-68
2023/06/13 03:50:11;;;;;;;3.40;1.75;;;15.80;65.70;;;;;;6187749;22;86917;-68
2023/06/13 03:52:37;;;;;;;3.63;1.60;;;16.00;66.70;;;;;;6187380;22;88730;-68
2023/06/13 03:55:03;;;;;;;3.17;1.48;;;16.30;66.20;;;;;;6187129;22;87402;-70
2023/06/13 03:57:31;;;;;;;3.50;1.30;;;16.70;65.20;;;;;;6187889;22;87602;-70
2023/06/13 03:59:57;;;;;;;5.40;1.40;;;17.10;64.00;;;;;;6188384;22;86631;-70
2023/06/13 04:02:23;;;;;;;3.47;1.25;;;17.50;63.20;;;;;;6184565;22;88398;-68
2023/06/13 04:04:48;;;;;;;5.80;1.73;;;17.90;62.50;;;;;;6187298;22;88257;-69
2023/06/13 04:07:15;;;;;;;7.93;1.45;;;18.30;61.50;;;;;;6184565;22;88464;-70
2023/06/13 04:09:42;;;;;;;7.13;2.38;;;18.70;60.90;;;;;;6187327;22;87041;-70
2023/06/13 04:12:08;;;;;;;6.20;1.98;;;19.10;60.00;;;;;;6188533;22;88678;-70
2023/06/13 04:14:34;;;;;;;5.18;2.03;;;19.60;57.80;;;;;;6187383;22;87510;-69
2023/06/13 04:17:00;;;;;;;4.78;1.90;;;20.00;57.60;;;;;;6199829;22;87142;-70
2023/06/13 04:19:25;;;;;;;7.13;1.60;;;20.30;56.10;;;;;;6219356;22;87395;-71
2023/06/13 04:21:51;;;;;;;3.83;1.92;;;20.80;55.60;;;;;;6218584;22;88044;-71
2023/06/13 04:24:17;;;;;;;4.35;2.08;;;21.10;54.70;;;;;;6218663;22;87146;-69
2023/06/13 04:26:46;;;;;;;5.80;2.33;;;21.40;53.20;;;;;;6219830;22;87235;-70
2023/06/13 04:29:18;;;;;;;6.30;1.80;;;21.70;52.50;;;;;;6219519;22;87182;-69
2023/06/13 04:31:45;;;;;;;5.93;2.13;;;22.00;51.80;;;;;;6218761;22;88517;-70
2023/06/13 04:34:11;;;;;;;7.90;2.35;;;22.60;50.40;;;;;;6219361;22;88900;-71
2023/06/13 04:36:38;;;;;;;4.97;2.38;;;23.20;49.10;;;;;;6218972;22;86963;-70
2023/06/13 04:39:06;;;;;;;4.65;2.17;;;23.60;48.50;;;;;;6219847;22;87287;-69
2023/06/13 04:41:37;;;;;;;5.15;1.58;;;23.80;47.30;;;;;;6219222;22;87955;-70
2023/06/13 04:44:09;;;;;;;2.92;2.00;;;24.30;47.30;;;;;;6217033;22;90570;-69
2023/06/13 04:46:40;;;;;;;7.05;2.53;;;24.70;46.60;;;;;;6219370;22;87429;-70
2023/06/13 04:49:06;;;;;;;7.82;2.30;;;25.10;45.60;;;;;;6217051;22;86975;-71
2023/06/13 04:51:33;;;;;;;4.22;2.50;;;25.40;45.80;;;;;;6217302;22;87477;-70
2023/06/13 04:54:00;;;;;;;3.88;1.75;;;25.80;45.00;;;;;;6217258;22;87736;-69
2023/06/13 04:56:27;;;;;;;7.28;2.35;;;25.90;44.80;;;;;;6217956;22;88328;-70
2023/06/13 04:58:53;;;;;;;5.47;2.10;;;26.70;44.50;;;;;;6218106;22;87552;-69
2023/06/13 05:01:20;;;;;;;3.95;2.38;;;27.20;43.80;;;;;;6216184;22;87851;-70
2023/06/13 05:03:47;;;;;;;5.43;2.08;;;27.70;43.90;;;;;;6219058;22;87535;-70
2023/06/13 05:06:13;;;;;;;6.22;3.03;;;28.50;42.60;;;;;;6218257;22;87006;-69
2023/06/13 05:08:38;;;;;;;6.43;2.78;;;28.90;42.10;;;;;;6218839;22;87350;-70
2023/06/13 05:11:04;;;;;;;6.50;3.00;;;29.30;41.50;;;;;;6217876;22;88037;-69
2023/06/13 05:13:30;;;;;;;4.45;3.00;;;29.90;40.60;;;;;;6218399;22;87216;-69
2023/06/13 05:15:56;;;;;;;3.80;2.88;;;30.40;39.70;;;;;;6218603;22;87362;-69
2023/06/13 05:18:24;;;;;;;5.45;2.83;;;30.60;39.90;;;;;;6217286;22;87069;-69
2023/06/13 05:20:50;;;;;;;5.82;2.83;;;30.30;39.30;;;;;;6216026;22;88475;-70
2023/06/13 05:23:16;;;;;;;6.05;3.30;;;30.40;39.70;;;;;;6217336;22;88903;-69
2023/06/13 05:25:42;;;;;;;6.57;3.13;;;30.60;40.10;;;;;;6218578;22;87357;-70
2023/06/13 05:28:08;;;;;;;4.25;3.28;;;30.80;39.70;;;;;;6215854;22;87032;-72
2023/06/13 05:30:33;;;;;;;5.28;3.45;;;31.40;39.40;;;;;;6216842;22;87563;-70
2023/06/13 05:32:59;;;;;;;5.53;3.22;;;31.50;38.70;;;;;;6217705;22;87367;-70
2023/06/13 05:35:25;;;;;;;7.93;3.03;;;31.50;38.60;;;;;;6214703;22;87246;-72
2023/06/13 05:37:51;;;;;;;4.82;2.72;;;31.90;38.70;;;;;;6214996;22;86450;-70
2023/06/13 05:40:16;;;;;;;6.65;3.20;;;32.00;37.90;;;;;;6214501;22;88262;-67
2023/06/13 05:42:42;;;;;;;8.60;3.60;;;32.30;38.30;;;;;;6212488;22;87786;-69
2023/06/13 05:45:09;;;;;;;7.25;3.47;;;32.20;38.20;;;;;;6211858;22;88190;-69
2023/06/13 05:47:35;;;;;;;5.63;3.28;;;32.70;38.00;;;;;;6214995;22;87341;-69
2023/06/13 05:50:02;;;;;;;8.20;3.30;;;33.20;38.00;;;;;;6217058;22;88066;-68
2023/06/13 05:52:28;;;;;;;6.25;3.80;;;33.20;36.80;;;;;;6215772;22;87350;-67
2023/06/13 05:54:54;;;;;;;4.32;3.55;;;33.10;37.30;;;;;;6215960;22;87258;-67
2023/06/13 05:57:19;;;;;;;4.72;3.45;;;33.50;37.00;;;;;;6217345;22;87098;-67
2023/06/13 05:59:45;;;;;;;6.32;4.15;;;33.60;37.00;;;;;;6215572;22;87717;-69
2023/06/13 06:02:11;;;;;;;3.78;2.97;;;33.90;36.30;;;;;;6218777;22;87376;-69
2023/06/13 06:04:37;;;;;;;6.97;3.20;;;34.20;36.60;;;;;;6215930;22;87111;-69
2023/06/13 06:07:04;;;;;;;5.07;4.10;;;34.80;36.20;;;;;;6216503;22;87005;-70
2023/06/13 06:09:30;;;;;;;7.75;3.65;;;34.80;35.20;;;;;;6213636;22;90543;-70
2023/06/13 06:11:56;;;;;;;7.75;3.92;;;35.40;35.50;;;;;;6214617;22;88545;-69
2023/06/13 06:14:22;;;;;;;6.32;3.83;;;35.50;35.20;;;;;;6215078;22;87014;-70
2023/06/13 06:16:50;;;;;;;6.07;4.50;;;35.60;34.80;;;;;;6217229;22;87510;-69
2023/06/13 06:19:15;;;;;;;6.43;3.78;;;35.40;34.40;;;;;;6215829;22;87981;-69
2023/06/13 06:21:41;;;;;;;5.15;3.50;;;34.90;34.50;;;;;;6216783;22;87898;-69
2023/06/13 06:24:08;;;;;;;5.38;4.30;;;35.50;34.50;;;;;;6216842;22;87204;-70
2023/06/13 06:26:34;;;;;;;6.15;3.85;;;36.00;34.10;;;;;;6218137;22;86314;-69
2023/06/13 06:28:59;;;;;;;5.55;2.97;;;36.10;33.90;;;;;;6218261;22;88072;-69
2023/06/13 06:31:27;;;;;;;7.60;4.28;;;36.20;33.70;;;;;;6217400;22;87816;-69
2023/06/13 06:33:52;;;;;;;6.35;4.45;;;36.50;33.80;;;;;;6218266;22;88270;-69
2023/06/13 06:36:22;;;;;;;5.18;3.97;;;36.70;33.50;;;;;;6217876;22;87452;-69
2023/06/13 06:38:48;;;;;;;6.20;4.18;;;36.80;33.70;;;;;;6217788;22;87545;-70
2023/06/13 06:41:14;;;;;;;6.53;5.05;;;36.80;34.00;;;;;;6218054;22;87718;-69
2023/06/13 06:43:40;;;;;;;5.07;4.38;;;37.30;32.50;;;;;;6215527;22;87347;-69
2023/06/13 06:46:07;;;;;;;6.45;4.78;;;37.50;32.50;;;;;;6217376;22;87500;-70
2023/06/13 06:48:33;;;;;;;5.85;4.85;;;37.80;31.70;;;;;;6218242;22;87111;-70
2023/06/13 06:50:58;;;;;;;6.47;4.65;;;38.10;32.30;;;;;;6218528;22;87074;-70
2023/06/13 06:53:24;;;;;;;6.55;2.83;;;38.40;32.20;;;;;;6217361;22;87279;-69
2023/06/13 06:55:53;;;;;;;5.10;4.57;;;38.40;31.30;;;;;;6218624;22;87376;-69
2023/06/13 06:58:18;;;;;;;4.30;3.88;;;39.00;31.90;;;;;;6217704;22;88959;-69
2023/06/13 07:00:44;;;;;;;5.65;4.60;;;39.20;31.00;;;;;;6216456;22;91414;-70
2023/06/13 07:03:10;;;;;;;5.85;4.93;;;38.80;30.90;;;;;;6218161;22;87177;-69
2023/06/13 07:05:35;;;;;;;6.22;5.47;;;39.00;31.20;;;;;;6216420;22;87134;-70
2023/06/13 07:08:01;;;;;;;5.68;5.18;;;39.20;31.60;;;;;;6218462;22;87326;-70
2023/06/13 07:10:27;;;;;;;6.18;5.10;;;39.40;31.10;;;;;;6218097;22;87369;-69
2023/06/13 07:12:52;;;;;;;7.60;4.72;;;39.70;31.10;;;;;;6218416;22;87423;-69
2023/06/13 07:15:18;;;;;;;6.05;5.47;;;39.80;31.20;;;;;;6219389;22;86650;-70
2023/06/13 07:17:44;;;;;;;6.18;5.30;;;39.10;30.50;;;;;;6217658;22;87455;-69
2023/06/13 07:20:11;;;;;;;11.00;5.85;;;39.40;31.70;;;;;;6217833;22;87898;-68
2023/06/13 07:22:37;;;;;;;5.60;5.05;;;39.70;31.20;;;;;;6218563;22;88029;-69
2023/06/13 07:25:03;;;;;;;9.50;5.07;;;39.80;30.90;;;;;;6218576;22;87442;-70
2023/06/13 07:27:29;;;;;;;6.88;5.07;;;40.00;31.00;;;;;;6218454;22;88899;-69
2023/06/13 07:29:55;;;;;;;5.72;4.93;;;40.30;30.60;;;;;;6216819;22;87774;-69
2023/06/13 07:32:21;;;;;;;8.30;4.82;;;40.10;30.90;;;;;;6218361;22;87379;-70
2023/06/13 07:34:46;;;;;;;5.05;4.55;;;40.10;29.60;;;;;;6218434;22;87662;-68
2023/06/13 07:37:12;;;;;;;7.45;4.80;;;40.30;30.60;;;;;;6217246;22;87454;-71
2023/06/13 07:39:37;;;;;;;6.90;5.85;;;40.60;30.50;;;;;;6218254;22;87768;-69
2023/06/13 07:42:05;;;;;;;3.88;3.33;;;40.30;29.80;;;;;;6216947;22;87008;-69
2023/06/13 07:44:31;;;;;;;6.93;5.38;;;39.80;30.60;;;;;;6219641;22;87399;-69
2023/06/13 07:46:57;;;;;;;5.38;4.85;;;39.80;30.20;;;;;;6217277;22;88480;-69
2023/06/13 07:49:22;;;;;;;8.73;6.05;;;39.90;30.40;;;;;;6218286;22;88578;-69
2023/06/13 07:51:48;;;;;;;6.85;5.20;;;39.70;30.80;;;;;;6218872;22;87795;-69
2023/06/13 07:54:14;;;;;;;6.68;5.93;;;40.20;30.50;;;;;;6219601;22;87581;-69
2023/06/13 07:56:40;;;;;;;6.13;3.65;;;40.60;30.80;;;;;;6219066;22;87394;-69
2023/06/13 07:59:06;;;;;;;5.78;5.05;;;40.90;30.70;;;;;;6218740;22;87636;-69
2023/06/13 08:01:32;;;;;;;8.98;5.82;;;41.70;31.10;;;;;;6218920;22;87302;-69
2023/06/13 08:03:58;;;;;;;6.07;5.45;;;42.30;29.90;;;;;;6219794;22;86430;-69
2023/06/13 08:06:23;;;;;;;5.78;4.43;;;42.10;29.60;;;;;;6218640;22;87921;-70
2023/06/13 08:08:49;;;;;;;8.38;5.53;;;41.70;29.40;;;;;;6218099;22;87880;-69
2023/06/13 08:11:15;;;;;;;9.05;6.18;;;41.60;29.90;;;;;;6218406;22;88223;-70
2023/06/13 08:13:41;;;;;;;6.57;5.88;;;41.70;29.90;;;;;;6218919;22;87495;-70
2023/06/13 08:16:06;;;;;;;7.18;6.47;;;41.70;29.50;;;;;;6218635;22;88172;-69
2023/06/13 08:18:32;;;;;;;8.55;6.43;;;41.80;30.10;;;;;;6217765;22;87720;-70
2023/06/13 08:20:57;;;;;;;8.38;3.50;;;42.30;30.30;;;;;;6218188;22;87217;-70
2023/06/13 08:23:23;;;;;;;9.95;6.45;;;42.60;29.90;;;;;;6219366;22;87261;-69
2023/06/13 08:25:52;;;;;;;7.93;5.55;;;42.60;29.50;;;;;;6218226;22;88436;-69
2023/06/13 08:28:18;;;;;;;7.80;5.97;;;41.90;29.70;;;;;;6218656;22;88024;-68
2023/06/13 08:30:45;;;;;;;9.55;6.57;;;42.20;30.20;;;;;;6218186;22;87254;-69
2023/06/13 08:33:12;;;;;;;7.88;6.75;;;42.20;29.20;;;;;;6218990;22;87427;-69
2023/06/13 08:35:37;;;;;;;8.43;6.25;;;42.20;29.70;;;;;;6217081;22;89119;-69
2023/06/13 08:38:03;;;;;;;9.20;6.32;;;42.10;29.40;;;;;;6219007;22;87343;-70
2023/06/13 08:40:29;;;;;;;7.22;6.57;;;42.80;29.50;;;;;;6218404;22;87436;-70
2023/06/13 08:42:55;;;;;;;8.50;7.05;;;43.30;28.70;;;;;;6219500;22;87343;-69
2023/06/13 08:45:21;;;;;;;8.15;6.45;;;43.20;29.10;;;;;;6217670;22;91596;-69
2023/06/13 08:47:48;;;;;;;7.80;7.03;;;42.90;29.20;;;;;;6217617;22;87349;-70
2023/06/13 08:50:18;;;;;;;7.88;7.18;;;43.40;29.40;;;;;;6219467;22;87202;-70
2023/06/13 08:52:46;;;;;;;7.85;7.10;;;43.90;28.90;;;;;;6219143;22;86707;-69
2023/06/13 08:55:16;;;;;;;9.73;7.15;;;43.80;29.60;;;;;;6218037;22;88196;-69
2023/06/13 08:57:45;;;;;;;7.35;6.65;;;43.80;29.20;;;;;;6218145;22;87779;-69
2023/06/13 09:00:12;;;;;;;8.60;7.78;;;43.80;29.50;;;;;;6217590;22;88034;-70
2023/06/13 09:02:43;;;;;;;8.73;7.47;;;44.30;29.50;;;;;;6219174;22;87539;-70
2023/06/13 09:05:13;;;;;;;7.95;6.93;;;44.00;29.10;;;;;;6218092;22;87534;-69
2023/06/13 09:07:40;;;;;;;8.73;6.70;;;43.90;29.30;;;;;;6218466;22;87926;-70
2023/06/13 09:10:10;;;;;;;5.45;4.93;;;43.70;28.80;;;;;;6218746;22;87147;-69
2023/06/13 09:12:38;;;;;;;9.50;7.20;;;44.00;28.60;;;;;;6217208;22;87602;-69
2023/06/13 09:15:04;;;;;;;8.73;7.57;;;44.50;28.70;;;;;;6218188;22;88190;-71
2023/06/13 09:17:30;;;;;;;7.22;6.60;;;44.40;28.60;;;;;;6216839;22;87860;-70
2023/06/13 09:19:56;;;;;;;7.55;6.47;;;44.40;28.40;;;;;;6218762;22;88442;-70
2023/06/13 09:22:23;;;;;;;8.48;7.68;;;44.40;28.60;;;;;;6218772;22;87358;-69
2023/06/13 09:24:50;;;;;;;6.10;4.90;;;44.30;28.70;;;;;;6217629;22;88561;-69
2023/06/13 09:27:16;;;;;;;8.10;6.60;;;43.90;29.30;;;;;;6218156;22;89176;-70
2023/06/13 09:29:42;;;;;;;7.75;6.88;;;43.80;29.00;;;;;;6217133;22;87312;-69
2023/06/13 09:32:10;;;;;;;7.80;7.10;;;44.30;28.60;;;;;;6217456;22;87270;-70
2023/06/13 09:34:37;;;;;;;7.68;6.97;;;44.40;28.80;;;;;;6217510;22;87268;-70
2023/06/13 09:37:05;;;;;;;8.85;7.72;;;44.00;28.70;;;;;;6217390;22;87696;-70
2023/06/13 09:39:31;;;;;;;8.48;7.80;;;44.30;29.40;;;;;;6217841;22;87223;-69
2023/06/13 09:41:59;;;;;;;11.52;6.97;;;44.60;28.80;;;;;;6219297;22;86520;-69
2023/06/13 09:44:25;;;;;;;7.00;5.95;;;44.90;29.20;;;;;;6219115;22;87454;-69
2023/06/13 09:46:52;;;;;;;8.00;7.40;;;44.20;28.80;;;;;;6218671;22;87254;-69
2023/06/13 09:49:19;;;;;;;8.38;6.78;;;44.30;28.70;;;;;;6218708;22;88293;-69
2023/06/13 09:51:45;;;;;;;7.75;6.95;;;43.80;29.20;;;;;;6218960;22;87563;-70
2023/06/13 09:54:12;;;;;;;7.60;6.25;;;43.30;29.30;;;;;;6216069;22;87322;-71
2023/06/13 09:56:42;;;;;;;7.03;6.03;;;43.00;30.10;;;;;;6218662;22;87616;-70
2023/06/13 09:59:07;;;;;;;6.80;6.20;;;41.90;30.50;;;;;;6219244;22;87490;-69
2023/06/13 10:01:34;;;;;;;6.70;5.13;;;41.60;30.60;;;;;;6218808;22;87299;-68
2023/06/13 10:04:02;;;;;;;7.10;5.22;;;41.00;30.50;;;;;;6216209;22;87505;-68
2023/06/13 10:06:29;;;;;;;8.32;3.97;;;39.40;31.20;;;;;;6217913;22;87944;-69
2023/06/13 10:08:55;;;;;;;7.22;4.43;;;38.20;33.80;;;;;;6218758;22;86996;-69
2023/06/13 10:11:28;;;;;;;6.95;4.82;;;36.70;33.40;;;;;;6218358;22;87430;-69
2023/06/13 10:13:56;;;;;;;6.47;3.75;;;35.60;35.80;;;;;;6215968;22;88474;-68
2023/06/13 10:16:23;;;;;;;4.47;2.58;;;34.50;36.50;;;;;;6217023;22;88750;-67
2023/06/13 10:18:52;;;;;;;6.38;3.05;;;33.80;37.00;;;;;;6217081;22;87345;-67
2023/06/13 10:21:19;;;;;;;4.93;2.47;;;33.00;37.80;;;;;;6219602;22;87953;-67
2023/06/13 10:23:49;;;;;;;4.68;3.22;;;32.20;39.50;;;;;;6218125;22;87269;-67
2023/06/13 10:26:45;;;;;;;6.60;3.35;;;31.70;39.60;;;;;;6217846;22;87764;-68
2023/06/13 10:29:31;;;;;;;6.35;2.65;;;31.20;40.30;;;;;;6198232;22;87657;-67
2023/06/13 10:32:00;;;;;;;4.63;2.47;;;31.10;41.30;;;;;;6218828;22;86692;-68
2023/06/13 10:34:35;;;;;;;;;;;30.80;42.00;;;;;;6217342;22;87974;-67
2023/06/13 10:37:08;;;;;;;;;;;30.90;42.00;;;;;;6220648;22;87128;-67
2023/06/13 10:40:05;;;;;;;6.60;2.03;;;30.40;41.90;;;;;;6219826;22;88404;-70
2023/06/13 10:42:39;;;;;;;5.03;2.08;;;29.90;43.80;;;;;;6216611;22;87244;-67
2023/06/13 10:45:14;;;;;;;7.07;2.33;;;29.70;44.10;;;;;;6216117;22;87564;-69
2023/06/13 10:47:39;;;;;;;4.95;1.80;;;29.50;44.60;;;;;;6215595;22;87626;-68
2023/06/13 10:50:08;;;;;;;4.55;2.58;;;29.30;43.40;;;;;;6216323;22;87367;-67
2023/06/13 10:52:34;;;;;;;4.30;2.55;;;29.20;44.80;;;;;;6216949;22;87939;-67
2023/06/13 10:55:01;;;;;;;3.70;2.13;;;29.10;44.80;;;;;;6214240;22;87564;-68
2023/06/13 10:57:53;;;;;;;3.70;2.20;;;29.20;44.70;;;;;;6214295;22;87440;-69
2023/06/13 11:00:34;;;;;;;4.80;2.70;;;29.10;45.80;;;;;;6215568;22;87152;-67
2023/06/13 11:03:09;;;;;;;5.55;2.20;;;29.10;43.80;;;;;;6216199;22;87327;-68
2023/06/13 11:05:52;;;;;;;5.40;2.20;;;28.80;47.10;;;;;;6214243;22;88999;-67
2023/06/13 11:08:25;;;;;;;6.68;3.33;;;28.80;45.50;;;;;;6214454;22;88129;-68
2023/06/13 11:10:52;;;;;;;7.57;2.70;;;28.80;45.80;;;;;;6215389;22;87132;-69
2023/06/13 11:13:25;;;;;;;3.17;1.98;;;28.80;45.30;;;;;;6215149;22;87313;-68
2023/06/13 11:15:56;;;;;;;6.20;2.72;;;28.70;46.40;;;;;;6211878;22;90815;-67
2023/06/13 11:18:22;;;;;;;9.35;2.75;;;28.80;45.40;;;;;;6211835;22;87953;-69
2023/06/13 11:20:49;;;;;;;4.35;2.30;;;29.00;45.60;;;;;;6218675;22;87596;-68
2023/06/13 11:23:21;;;;;;;7.03;2.80;;;29.10;45.40;;;;;;6223913;22;86713;-66
2023/06/13 11:25:51;;;;;;;9.43;2.60;;;29.00;45.80;;;;;;6224714;22;87664;-68
2023/06/13 11:28:18;;;;;;;4.45;2.15;;;28.90;45.60;;;;;;6224844;22;87392;-67
2023/06/13 11:30:47;;;;;;;8.73;1.92;;;28.90;46.20;;;;;;6224831;22;88356;-67
2023/06/13 11:33:13;;;;;;;4.75;2.30;;;28.90;46.00;;;;;;6225568;22;87328;-67
2023/06/13 11:35:49;;;;;;;4.22;1.90;;;28.80;46.20;;;;;;6224270;22;88215;-67
2023/06/13 11:38:27;;;;;;;4.05;2.22;;;28.60;47.20;;;;;;6225204;22;87139;-69
2023/06/13 11:40:59;;;;;;;5.50;2.60;;;28.70;46.60;;;;;;6224990;22;87768;-68
2023/06/13 11:43:25;;;;;;;8.75;2.53;;;28.80;46.50;;;;;;6225402;22;87003;-68
2023/06/13 11:46:01;;;;;;;7.88;3.28;;;28.80;46.10;;;;;;6224982;22;88445;-67
2023/06/13 11:48:27;;;;;;;;;;;28.90;46.70;;;;;;6225682;22;87730;-67
2023/06/13 11:50:53;;;;;;;4.80;2.13;;;28.80;46.30;;;;;;6225981;22;87418;-67
2023/06/13 11:53:19;;;;;;;9.35;2.92;;;28.80;46.10;;;;;;6222099;22;87005;-66
2023/06/13 11:55:46;;;;;;;5.53;2.33;;;28.50;46.30;;;;;;6219526;22;88959;-68
2023/06/13 11:58:11;;;;;;;5.95;2.80;;;28.50;46.10;;;;;;6221540;22;87402;-68
2023/06/13 12:00:53;;;;;;;6.47;2.38;;;28.50;47.40;;;;;;6221248;22;87309;-69
2023/06/13 12:03:22;;;;;;;6.25;1.83;;;28.60;47.90;;;;;;6222313;22;87334;-68
2023/06/13 12:05:48;;;;;;;6.75;2.20;;;28.70;46.90;;;;;;6220407;22;88562;-68
2023/06/13 12:08:17;;;;;;;5.57;1.88;;;28.60;46.70;;;;;;6220899;22;87421;-68
2023/06/13 12:10:49;;;;;;;12.68;2.58;;;28.60;46.00;;;;;;6221010;22;86993;-69
2023/06/13 12:13:18;;;;;;;9.13;2.30;;;28.80;47.10;;;;;;6221855;22;86756;-68
2023/06/13 12:15:43;;;;;;;;;;;28.70;47.30;;;;;;6221299;22;88228;-69
2023/06/13 12:18:09;;;;;;;13.48;3.13;;;28.80;46.20;;;;;;6221323;22;87377;-68
2023/06/13 12:20:53;;;;;;;11.57;2.55;;;28.80;46.60;;;;;;6221263;22;88243;-68
2023/06/13 12:23:20;;;;;;;13.82;2.35;;;28.70;46.30;;;;;;6221922;22;87315;-69
2023/06/13 12:25:46;;;;;;;11.48;2.10;;;28.80;48.00;;;;;;6220940;22;88473;-67
2023/06/13 12:28:15;;;;;;;5.90;2.35;;;28.90;44.50;;;;;;6221070;22;87467;-68
2023/06/13 12:30:42;;;;;;;12.10;1.98;;;29.10;44.80;;;;;;6219192;22;86928;-68
2023/06/13 12:33:15;;;;;;;12.38;2.38;;;29.20;45.40;;;;;;6219785;22;87435;-66
2023/06/13 12:35:51;;;;;;;3.90;1.90;;;29.30;45.20;;;;;;6219455;22;88139;-67
2023/06/13 12:38:28;;;;;;;4.38;2.30;;;29.30;44.30;;;;;;6219612;22;87285;-67
2023/06/13 12:40:54;;;;;;;6.68;2.50;;;29.20;43.80;;;;;;6217961;22;87392;-67
2023/06/13 12:43:30;;;;;;;8.98;2.13;;;28.90;42.70;;;;;;6219310;22;87040;-68
2023/06/13 12:45:57;;;;;;;9.77;2.38;;;28.90;43.50;;;;;;6218744;22;90921;-67
2023/06/13 12:48:23;;;;;;;7.35;2.55;;;28.80;41.50;;;;;;6218548;22;89140;-67
2023/06/13 12:50:50;;;;;;;5.50;2.25;;;28.60;42.00;;;;;;6219492;22;87280;-67
2023/06/13 12:53:20;;;;;;;7.75;2.42;;;28.60;43.30;;;;;;6219534;22;87319;-67
2023/06/13 12:55:53;;;;;;;7.25;2.13;;;28.60;42.60;;;;;;6218987;22;87451;-66
2023/06/13 12:58:31;;;;;;;3.25;1.42;;;28.50;44.30;;;;;;6219458;22;88318;-67
2023/06/13 13:01:07;;;;;;;7.30;2.45;;;28.50;42.60;;;;;;6219319;22;87295;-68
2023/06/13 13:03:35;;;;;;;4.25;2.05;;;28.70;43.40;;;;;;6219810;22;86498;-67
2023/06/13 13:06:01;;;;;;;4.47;2.13;;;28.60;44.00;;;;;;6218717;22;88032;-67
2023/06/13 13:08:28;;;;;;;8.13;2.00;;;28.60;42.00;;;;;;6218636;22;87654;-67
2023/06/13 13:10:54;;;;;;;5.00;2.35;;;28.60;44.80;;;;;;6219092;22;87915;-67
2023/06/13 13:13:21;;;;;;;21.13;2.67;;;28.60;42.70;;;;;;6218694;22;87536;-69
2023/06/13 13:15:46;;;;;;;6.63;1.90;;;28.70;44.20;;;;;;6218243;22;88962;-69
2023/06/13 13:18:13;;;;;;;3.47;2.08;;;28.70;44.20;;;;;;6218438;22;87723;-67
2023/06/13 13:20:39;;;;;;;5.78;2.10;;;28.60;41.80;;;;;;6219307;22;87200;-67
2023/06/13 13:23:05;;;;;;;7.47;2.17;;;28.60;43.80;;;;;;6219051;22;87334;-67
2023/06/13 13:25:32;;;;;;;5.38;2.00;;;28.70;43.00;;;;;;6218699;22;88401;-67
2023/06/13 13:27:58;;;;;;;6.80;2.10;;;28.80;42.80;;;;;;6219539;22;86640;-66
2023/06/13 13:30:25;;;;;;;6.40;1.98;;;28.60;41.60;;;;;;6219661;22;87606;-68
2023/06/13 13:32:50;;;;;;;6.65;2.40;;;28.70;42.00;;;;;;6219772;22;87253;-67
2023/06/13 13:35:17;;;;;;;6.70;1.85;;;28.80;43.60;;;;;;6217542;22;89227;-68
2023/06/13 13:37:45;;;;;;;4.93;2.33;;;28.80;42.50;;;;;;6218225;22;88155;-68
2023/06/13 13:40:11;;;;;;;4.88;1.80;;;28.70;41.90;;;;;;6218746;22;87282;-68
2023/06/13 13:42:38;;;;;;;5.10;2.83;;;28.80;43.40;;;;;;6219354;22;87329;-68
2023/06/13 13:45:04;;;;;;;5.60;2.38;;;28.80;41.40;;;;;;6218114;22;88357;-68
2023/06/13 13:47:30;;;;;;;4.47;2.22;;;28.70;42.60;;;;;;6218673;22;87805;-68
2023/06/13 13:49:58;;;;;;;5.18;2.30;;;28.60;41.40;;;;;;6219321;22;87312;-69
2023/06/13 13:52:25;;;;;;;3.85;2.22;;;28.50;43.10;;;;;;6219670;22;86480;-69
2023/06/13 13:54:52;;;;;;;8.05;1.73;;;28.40;42.00;;;;;;6217427;22;88097;-69
2023/06/13 13:57:18;;;;;;;7.53;2.40;;;28.50;42.80;;;;;;6218922;22;87652;-68
2023/06/13 13:59:46;;;;;;;7.80;2.20;;;28.60;43.50;;;;;;6218440;22;88012;-67
2023/06/13 14:02:11;;;;;;;4.47;2.15;;;28.70;42.00;;;;;;6219133;22;87069;-67
2023/06/13 14:04:37;;;;;;;6.85;2.05;;;28.60;43.10;;;;;;6218277;22;88782;-67
2023/06/13 14:07:03;;;;;;;6.85;2.08;;;28.60;42.40;;;;;;6218173;22;87713;-67
2023/06/13 14:09:29;;;;;;;4.88;1.83;;;28.50;41.30;;;;;;6219436;22;87234;-68
2023/06/13 14:11:55;;;;;;;7.10;2.63;;;28.60;42.80;;;;;;6219052;22;87862;-67
2023/06/13 14:14:20;;;;;;;9.45;2.42;;;28.60;43.20;;;;;;6218634;22;87790;-67
2023/06/13 14:16:46;;;;;;;17.95;3.45;;;28.50;42.50;;;;;;6217247;22;88085;-68
2023/06/13 14:19:12;;;;;;;7.15;2.72;;;28.50;42.50;;;;;;6216483;22;87323;-67
2023/06/13 14:21:37;;;;;;;6.78;2.40;;;28.50;42.50;;;;;;6217168;22;87342;-68
2023/06/13 14:24:04;;;;;;;17.58;3.08;;;28.40;41.30;;;;;;6215594;22;89594;-67
2023/06/13 14:26:31;;;;;;;10.65;2.17;;;28.30;41.20;;;;;;6216742;22;87896;-65
2023/06/13 14:28:56;;;;;;;3.95;2.03;;;28.20;41.00;;;;;;6216546;22;87280;-67
2023/06/13 14:31:22;;;;;;;4.90;2.40;;;28.10;40.90;;;;;;6216713;22;87221;-68
2023/06/13 14:33:48;;;;;;;5.93;1.48;;;28.00;42.20;;;;;;6216044;22;87179;-67
2023/06/13 14:36:14;;;;;;;8.82;2.17;;;28.10;42.90;;;;;;6215942;22;88743;-69
2023/06/13 14:38:42;;;;;;;4.97;2.20;;;28.10;40.70;;;;;;6216528;22;87029;-69
2023/06/13 14:41:11;;;;;;;5.63;2.35;;;28.20;43.50;;;;;;6216609;22;86650;-68
2023/06/13 14:43:40;;;;;;;4.55;2.70;;;28.10;40.10;;;;;;6214699;22;87885;-69
2023/06/13 14:46:08;;;;;;;;;;;28.00;40.50;;;;;;6213515;22;88944;-68
2023/06/13 14:48:34;;;;;;;5.20;2.10;;;28.00;39.40;;;;;;6215364;22;88164;-69
2023/06/13 14:51:00;;;;;;;8.07;2.40;;;27.90;42.30;;;;;;6212997;22;87499;-67
2023/06/13 14:53:26;;;;;;;9.10;2.40;;;28.00;41.50;;;;;;6213503;22;88031;-67
2023/06/13 14:55:53;;;;;;;15.32;2.28;;;28.00;39.70;;;;;;6212847;22;87324;-68
2023/06/13 14:58:18;;;;;;;5.80;2.03;;;27.80;39.80;;;;;;6213640;22;87206;-68
2023/06/13 15:00:44;;;;;;;10.90;2.10;;;27.70;40.00;;;;;;6211106;22;87325;-68
2023/06/13 15:03:10;;;;;;;5.00;1.83;;;27.70;41.50;;;;;;6212797;22;88182;-67
2023/06/13 15:05:36;;;;;;;9.25;2.20;;;27.70;40.70;;;;;;6212069;22;87757;-68
2023/06/13 15:08:01;;;;;;;6.20;1.95;;;27.70;40.70;;;;;;6213427;22;87292;-68
2023/06/13 15:10:27;;;;;;;9.20;2.03;;;27.70;40.10;;;;;;6213186;22;87062;-68
2023/06/13 15:12:53;;;;;;;5.57;2.03;;;27.70;39.60;;;;;;6191518;22;88966;-69
2023/06/13 15:15:18;;;;;;;4.68;1.92;;;27.60;39.30;;;;;;6212850;22;88258;-69
2023/06/13 15:17:44;;;;;;;11.90;3.05;;;27.60;38.70;;;;;;6159880;22;1235999;-68
2023/06/13 15:20:10;;;;;;;7.68;2.03;;;27.60;38.40;;;;;;6215533;22;87651;-67
2023/06/13 15:22:36;;;;;;;8.48;2.03;;;27.60;40.00;;;;;;6214884;22;88410;-67
2023/06/13 15:25:02;;;;;;;9.55;1.75;;;27.60;40.00;;;;;;6214691;22;87852;-67
2023/06/13 15:27:27;;;;;;;4.95;1.92;;;27.50;39.10;;;;;;6215886;22;87216;-66
2023/06/13 15:29:53;;;;;;;3.83;2.03;;;27.50;39.10;;;;;;6216251;22;86517;-67
2023/06/13 15:32:20;;;;;;;6.82;1.88;;;27.50;39.20;;;;;;6208922;22;88078;-69
2023/06/13 15:34:46;;;;;;;4.45;2.10;;;27.50;39.20;;;;;;6212698;22;87930;-67
2023/06/13 15:37:12;;;;;;;6.72;1.55;;;27.40;38.20;;;;;;6214482;22;88306;-69
2023/06/13 15:39:37;;;;;;;7.13;1.52;;;27.40;38.90;;;;;;6215485;22;87581;-67
2023/06/13 15:42:03;;;;;;;6.97;1.52;;;27.50;38.80;;;;;;6214707;22;87323;-67
2023/06/13 15:44:29;;;;;;;6.47;1.95;;;27.40;38.20;;;;;;6215143;22;87613;-68
2023/06/13 15:46:55;;;;;;;4.18;2.45;;;27.30;37.70;;;;;;6216511;22;87290;-67
2023/06/13 15:49:21;;;;;;;5.68;2.28;;;27.30;38.80;;;;;;6217859;22;87011;-67
2023/06/13 15:51:47;;;;;;;4.60;1.73;;;27.10;36.20;;;;;;6216818;22;88155;-68
2023/06/13 15:54:13;;;;;;;7.95;2.15;;;27.10;38.20;;;;;;6216579;22;87169;-68
2023/06/13 15:56:38;;;;;;;4.75;1.73;;;27.00;36.80;;;;;;6217928;22;87281;-68
2023/06/13 15:59:04;;;;;;;5.65;2.17;;;27.00;37.10;;;;;;6217644;22;87277;-68
2023/06/13 16:01:30;;;;;;;3.75;1.90;;;27.00;36.60;;;;;;6216452;22;88547;-68
2023/06/13 16:03:56;;;;;;;6.32;1.83;;;27.00;36.70;;;;;;6217194;22;88506;-67